Time;durP1;ratioP1;P1;durP2;ratioP2;P2;SDS_P1;SDS_P2;PMS_P1;PMS_P2;Temp;Humidity;BMP_temperature;BMP_pressure;BME280_temperature;BME280_humidity;BME280_pressure;Samples;Min_cycle;Max_cycle;Signal;HPM_P1;HPM_P2
2021/07/29 00:00:19;;;;;;;;;;;17.00;99.90;;;;;;5012876;28;19957;-85
2021/07/29 00:02:45;;;;;;;;;;;17.00;99.90;;;;;;5011279;28;19932;-86
2021/07/29 00:05:10;;;;;;;;;;;16.90;99.90;;;;;;5012388;28;19929;-87
2021/07/29 00:07:36;;;;;;;;;;;16.90;99.90;;;;;;5014847;28;20044;-86
2021/07/29 00:10:05;;;;;;;;;;;16.90;99.90;;;;;;5028966;28;19959;-85
2021/07/29 00:12:31;;;;;;;;;;;16.90;99.90;;;;;;5011182;28;20565;-85
2021/07/29 00:14:57;;;;;;;;;;;16.90;99.90;;;;;;5012753;28;19929;-86
2021/07/29 00:20:08;;;;;;;;;;;16.90;99.90;;;;;;5023951;28;19932;-85
2021/07/29 00:22:33;;;;;;;;;;;17.00;99.90;;;;;;4994606;28;20292;-85
2021/07/29 00:24:59;;;;;;;;;;;16.90;99.90;;;;;;4996325;28;19932;-85
2021/07/29 00:27:25;;;;;;;;;;;16.80;99.90;;;;;;5010412;28;19917;-86
2021/07/29 00:29:57;;;;;;;;;;;16.40;99.90;;;;;;4994607;28;19925;-86
2021/07/29 00:32:23;;;;;;;;;;;15.30;99.90;;;;;;4978570;28;19932;-85
2021/07/29 00:34:48;;;;;;;;;;;14.40;99.90;;;;;;5030463;28;19925;-84
2021/07/29 00:37:14;;;;;;;;;;;13.90;99.90;;;;;;4996847;28;19925;-84
2021/07/29 00:39:40;;;;;;;;;;;13.70;99.90;;;;;;5011059;28;19932;-85
2021/07/29 00:42:05;;;;;;;;;;;13.70;99.90;;;;;;4993797;28;19925;-85
2021/07/29 00:44:34;;;;;;;;;;;13.60;99.90;;;;;;5010886;28;19921;-85
2021/07/29 00:47:01;;;;;;;;;;;13.70;99.90;;;;;;4994643;28;20940;-86
2021/07/29 00:49:26;;;;;;;;;;;13.80;99.90;;;;;;4994974;28;19928;-85
2021/07/29 00:51:52;;;;;;;;;;;13.80;99.90;;;;;;5008893;28;19925;-85
2021/07/29 00:54:18;;;;;;;;;;;13.80;99.90;;;;;;5010001;28;19925;-86
2021/07/29 00:56:45;;;;;;;;;;;13.90;99.90;;;;;;5009525;28;19934;-85
2021/07/29 00:59:11;;;;;;;;;;;13.80;99.90;;;;;;5010486;28;20463;-85
2021/07/29 01:01:37;;;;;;;;;;;14.00;99.90;;;;;;5010524;28;19925;-85
2021/07/29 01:04:03;;;;;;;;;;;14.00;99.90;;;;;;4996406;28;20300;-85
2021/07/29 01:06:28;;;;;;;;;;;14.10;99.90;;;;;;4996643;28;19927;-84
2021/07/29 01:08:58;;;;;;;;;;;14.00;99.90;;;;;;4978049;28;19964;-85
2021/07/29 01:11:24;;;;;;;;;;;14.10;99.90;;;;;;5010171;28;19932;-85
2021/07/29 01:13:49;;;;;;;;;;;14.10;99.90;;;;;;5010149;28;19925;-85
2021/07/29 01:16:15;;;;;;;;;;;14.00;99.90;;;;;;4993816;28;19964;-85
2021/07/29 01:18:41;;;;;;;;;;;14.10;99.90;;;;;;4979730;28;20377;-85
2021/07/29 01:21:06;;;;;;;;;;;14.10;99.90;;;;;;4991352;28;19925;-86
2021/07/29 01:23:32;;;;;;;;;;;14.00;99.90;;;;;;4995167;28;20011;-86
2021/07/29 01:25:58;;;;;;;;;;;14.00;99.90;;;;;;4978028;28;20299;-85
2021/07/29 01:28:24;;;;;;;;;;;14.00;99.90;;;;;;4977384;28;19971;-86
2021/07/29 01:30:49;;;;;;;;;;;13.90;99.90;;;;;;4993352;28;19932;-87
2021/07/29 01:33:15;;;;;;;;;;;13.80;99.90;;;;;;5013034;28;20441;-86
2021/07/29 01:35:42;;;;;;;;;;;13.70;99.90;;;;;;4995069;28;20416;-86
2021/07/29 01:38:07;;;;;;;;;;;13.60;99.90;;;;;;4993935;28;19925;-86
2021/07/29 01:40:33;;;;;;;;;;;13.60;99.90;;;;;;4993856;28;19932;-85
2021/07/29 01:42:59;;;;;;;;;;;13.60;99.90;;;;;;4993445;28;19948;-86
2021/07/29 01:45:25;;;;;;;;;;;13.60;99.90;;;;;;4978648;28;19943;-86
2021/07/29 01:47:50;;;;;;;;;;;13.60;99.90;;;;;;4993905;28;19932;-86
2021/07/29 01:50:16;;;;;;;;;;;13.70;99.90;;;;;;4978339;28;19921;-87
2021/07/29 01:52:42;;;;;;;;;;;13.70;99.90;;;;;;4998974;28;19952;-86
2021/07/29 01:55:08;;;;;;;;;;;13.70;99.90;;;;;;4993811;28;19975;-87
2021/07/29 01:57:36;;;;;;;;;;;13.70;99.90;;;;;;5010650;28;19931;-86
2021/07/29 02:00:03;;;;;;;;;;;13.70;99.90;;;;;;5011240;28;19932;-88
2021/07/29 02:02:28;;;;;;;;;;;13.80;99.90;;;;;;4993892;28;20434;-87
2021/07/29 02:04:54;;;;;;;;;;;13.80;99.90;;;;;;5010286;28;19921;-87
2021/07/29 02:07:20;;;;;;;;;;;13.90;99.90;;;;;;4993775;28;20047;-87
2021/07/29 02:09:45;;;;;;;;;;;13.90;99.90;;;;;;4977137;28;19975;-86
2021/07/29 02:12:11;;;;;;;;;;;14.00;99.90;;;;;;4996312;28;19920;-86
2021/07/29 02:14:36;;;;;;;;;;;13.90;99.90;;;;;;4993115;28;20376;-86
2021/07/29 02:17:02;;;;;;;;;;;13.90;99.90;;;;;;5009600;28;19956;-85
2021/07/29 02:19:28;;;;;;;;;;;13.80;99.90;;;;;;5011591;28;19933;-87
2021/07/29 02:21:54;;;;;;;;;;;13.70;99.90;;;;;;4977119;28;19921;-87
2021/07/29 02:24:20;;;;;;;;;;;13.60;99.90;;;;;;4979402;28;19925;-87
2021/07/29 02:26:45;;;;;;;;;;;13.50;99.90;;;;;;5009973;28;20396;-86
2021/07/29 02:29:11;;;;;;;;;;;13.40;99.90;;;;;;5009746;28;19932;-85
2021/07/29 02:31:37;;;;;;;;;;;13.40;99.90;;;;;;4993981;28;20376;-86
2021/07/29 02:34:02;;;;;;;;;;;13.40;99.90;;;;;;4993194;28;19979;-86
2021/07/29 02:36:28;;;;;;;;;;;13.40;99.90;;;;;;5009629;28;19921;-87
2021/07/29 02:38:54;;;;;;;;;;;13.30;99.90;;;;;;5012494;28;19999;-87
2021/07/29 02:41:20;;;;;;;;;;;13.30;99.90;;;;;;5006814;28;19921;-86
2021/07/29 02:43:46;;;;;;;;;;;13.10;99.90;;;;;;5012679;28;20493;-87
2021/07/29 02:46:12;;;;;;;;;;;13.10;99.90;;;;;;5030790;28;20368;-86
2021/07/29 02:48:37;;;;;;;;;;;13.10;99.90;;;;;;5029542;28;19965;-85
2021/07/29 02:51:03;;;;;;;;;;;13.10;99.90;;;;;;5010647;28;19964;-87
2021/07/29 02:53:33;;;;;;;;;;;13.10;99.90;;;;;;5010849;28;20454;-87
2021/07/29 02:55:59;;;;;;;;;;;13.10;99.90;;;;;;5031448;28;19927;-86
2021/07/29 02:58:25;;;;;;;;;;;13.10;99.90;;;;;;5009121;28;19949;-86
2021/07/29 03:00:51;;;;;;;;;;;13.10;99.90;;;;;;4996504;28;20533;-87
2021/07/29 03:03:17;;;;;;;;;;;13.10;99.90;;;;;;4996677;28;19925;-86
2021/07/29 03:05:46;;;;;;;;;;;13.10;99.90;;;;;;5017067;28;20296;-85
2021/07/29 03:08:14;;;;;;;;;;;13.10;99.90;;;;;;5001328;28;20497;-87
2021/07/29 03:10:39;;;;;;;;;;;13.00;99.90;;;;;;5032561;28;19959;-87
2021/07/29 03:13:05;;;;;;;;;;;13.10;99.90;;;;;;5017282;28;19924;-86
2021/07/29 03:15:31;;;;;;;;;;;13.10;99.90;;;;;;5000698;28;21094;-87
2021/07/29 03:17:57;;;;;;;;;;;13.10;99.90;;;;;;5032594;28;19925;-87
2021/07/29 03:20:24;;;;;;;;;;;13.20;99.90;;;;;;5051364;28;19978;-86
2021/07/29 03:22:50;;;;;;;;;;;13.20;99.90;;;;;;5027916;28;20014;-89
2021/07/29 03:25:16;;;;;;;;;;;13.30;99.90;;;;;;5001860;28;20387;-86
2021/07/29 03:27:41;;;;;;;;;;;13.30;99.90;;;;;;5017012;28;19931;-86
2021/07/29 03:30:07;;;;;;;;;;;13.40;99.90;;;;;;5010938;28;20482;-86
2021/07/29 03:32:33;;;;;;;;;;;13.40;99.90;;;;;;4996412;28;19948;-88
2021/07/29 03:34:59;;;;;;;;;;;13.50;99.90;;;;;;4999059;28;19937;-87
2021/07/29 03:37:24;;;;;;;;;;;13.50;99.90;;;;;;4988213;28;19932;-86
2021/07/29 03:39:50;;;;;;;;;;;13.50;99.90;;;;;;5011057;28;20328;-86
2021/07/29 03:42:19;;;;;;;;;;;13.60;99.90;;;;;;5013450;28;20303;-87
2021/07/29 03:44:45;;;;;;;;;;;13.60;99.90;;;;;;5010218;28;20449;-85
2021/07/29 03:47:10;;;;;;;;;;;13.60;99.90;;;;;;5050504;28;19921;-89
2021/07/29 03:49:36;;;;;;;;;;;13.60;99.90;;;;;;5016282;28;20012;-87
2021/07/29 03:52:02;;;;;;;;;;;13.50;99.90;;;;;;4996468;28;20059;-86
2021/07/29 03:54:29;;;;;;;;;;;13.60;99.90;;;;;;5013936;28;19986;-86
2021/07/29 03:56:55;;;;;;;;;;;13.60;99.90;;;;;;5013277;28;20376;-87
2021/07/29 03:59:21;;;;;;;;;;;13.60;99.90;;;;;;4993696;28;19930;-85
2021/07/29 04:01:47;;;;;;;;;;;13.60;99.90;;;;;;4976751;28;19929;-86
2021/07/29 04:04:12;;;;;;;;;;;13.60;99.90;;;;;;5015609;28;19948;-86
2021/07/29 04:06:38;;;;;;;;;;;13.70;99.90;;;;;;5015604;28;19924;-87
2021/07/29 04:09:08;;;;;;;;;;;13.70;99.90;;;;;;4994755;28;19957;-86
2021/07/29 04:11:34;;;;;;;;;;;13.70;99.90;;;;;;4979651;28;19956;-87
2021/07/29 04:14:00;;;;;;;;;;;13.70;99.90;;;;;;4977314;28;20040;-85
2021/07/29 04:16:26;;;;;;;;;;;13.70;99.90;;;;;;4976944;28;20786;-86
2021/07/29 04:18:52;;;;;;;;;;;13.70;99.90;;;;;;4970386;28;20115;-87
2021/07/29 04:21:17;;;;;;;;;;;13.70;99.90;;;;;;4995902;28;20384;-86
2021/07/29 04:23:43;;;;;;;;;;;13.70;99.90;;;;;;5007076;28;20304;-86
2021/07/29 04:26:09;;;;;;;;;;;13.70;99.90;;;;;;4980609;28;19928;-88
2021/07/29 04:28:35;;;;;;;;;;;13.70;99.90;;;;;;4996913;28;19929;-87
2021/07/29 04:31:00;;;;;;;;;;;13.70;99.90;;;;;;5030100;28;19921;-87
2021/07/29 04:33:28;;;;;;;;;;;13.80;99.90;;;;;;4980111;28;20036;-86
2021/07/29 04:35:53;;;;;;;;;;;13.80;99.90;;;;;;4995686;28;20356;-86
2021/07/29 04:38:19;;;;;;;;;;;13.80;99.90;;;;;;4979927;28;19925;-86
2021/07/29 04:40:45;;;;;;;;;;;13.80;99.90;;;;;;4998371;28;19924;-88
2021/07/29 04:43:10;;;;;;;;;;;13.80;99.90;;;;;;4999144;28;19928;-87
2021/07/29 04:45:36;;;;;;;;;;;13.80;99.90;;;;;;4979163;28;19979;-91
2021/07/29 04:48:03;;;;;;;;;;;13.70;99.90;;;;;;5012764;28;19921;-89
2021/07/29 04:50:29;;;;;;;;;;;13.70;99.90;;;;;;5029765;28;20069;-88
2021/07/29 04:52:55;;;;;;;;;;;13.70;99.90;;;;;;4996207;28;19993;-86
2021/07/29 04:55:21;;;;;;;;;;;13.70;99.90;;;;;;5026838;28;20421;-86
2021/07/29 04:57:47;;;;;;;;;;;13.70;99.90;;;;;;5010707;28;19933;-87
2021/07/29 05:00:13;;;;;;;;;;;13.70;99.90;;;;;;4978195;28;19932;-85
2021/07/29 05:02:39;;;;;;;;;;;13.70;99.90;;;;;;4993866;28;19999;-85
2021/07/29 05:05:05;;;;;;;;;;;13.70;99.90;;;;;;4997259;28;19929;-86
2021/07/29 05:07:31;;;;;;;;;;;13.70;99.90;;;;;;4992022;28;19953;-87
2021/07/29 05:09:56;;;;;;;;;;;13.80;99.90;;;;;;4995100;28;20009;-86
2021/07/29 05:12:22;;;;;;;;;;;13.80;99.90;;;;;;5000144;28;19925;-86
2021/07/29 05:14:48;;;;;;;;;;;13.80;99.90;;;;;;4988045;28;19929;-86
2021/07/29 05:17:22;;;;;;;;;;;13.80;99.90;;;;;;5016785;28;19929;-86
2021/07/29 05:19:48;;;;;;;;;;;13.90;99.90;;;;;;5012747;28;19929;-87
2021/07/29 05:22:15;;;;;;;;;;;13.90;99.90;;;;;;4995418;28;19931;-86
2021/07/29 05:24:40;;;;;;;;;;;13.90;99.90;;;;;;5028886;28;19970;-86
2021/07/29 05:27:06;;;;;;;;;;;13.90;99.90;;;;;;5030862;28;19932;-88
2021/07/29 05:29:35;;;;;;;;;;;13.90;99.90;;;;;;5031256;28;19970;-86
2021/07/29 05:32:00;;;;;;;;;;;13.90;99.90;;;;;;5014789;28;19921;-88
2021/07/29 05:34:46;;;;;;;;;;;14.00;99.90;;;;;;5004743;28;20285;-86
2021/07/29 05:37:12;;;;;;;;;;;14.00;99.90;;;;;;5030828;28;19933;-87
2021/07/29 05:39:37;;;;;;;;;;;14.00;99.90;;;;;;5019636;28;19933;-87
2021/07/29 05:42:03;;;;;;;;;;;14.00;99.90;;;;;;5010849;28;20319;-87
2021/07/29 05:44:29;;;;;;;;;;;14.00;99.90;;;;;;5030103;28;19925;-87
2021/07/29 05:46:55;;;;;;;;;;;14.00;99.90;;;;;;5011548;28;20367;-87
2021/07/29 05:49:20;;;;;;;;;;;14.10;99.90;;;;;;4991934;28;20350;-86
2021/07/29 05:51:46;;;;;;;;;;;14.10;99.90;;;;;;4986036;28;19986;-86
2021/07/29 05:54:12;;;;;;;;;;;14.20;99.90;;;;;;5011283;28;20020;-87
2021/07/29 05:56:37;;;;;;;;;;;14.30;99.90;;;;;;4994766;28;21149;-86
2021/07/29 05:59:03;;;;;;;;;;;14.30;99.90;;;;;;5027248;28;19921;-87
2021/07/29 06:01:29;;;;;;;;;;;14.30;99.90;;;;;;5012524;28;20392;-86
2021/07/29 06:03:55;;;;;;;;;;;14.40;99.90;;;;;;4994632;28;20035;-86
2021/07/29 06:06:21;;;;;;;;;;;14.40;99.90;;;;;;4978933;28;19921;-87
2021/07/29 06:08:47;;;;;;;;;;;14.40;99.90;;;;;;4994727;28;19967;-87
2021/07/29 06:11:12;;;;;;;;;;;14.40;99.90;;;;;;5010864;28;20303;-87
2021/07/29 06:13:38;;;;;;;;;;;14.50;99.90;;;;;;4995833;28;19928;-86
2021/07/29 06:16:09;;;;;;;;;;;14.50;99.90;;;;;;5011963;28;20015;-87
2021/07/29 06:18:37;;;;;;;;;;;14.50;99.90;;;;;;4998901;28;19925;-86
2021/07/29 06:21:03;;;;;;;;;;;14.60;99.90;;;;;;4996473;28;19987;-86
2021/07/29 06:23:28;;;;;;;;;;;14.60;99.90;;;;;;5028814;28;20384;-85
2021/07/29 06:25:54;;;;;;;;;;;14.70;99.90;;;;;;5034652;28;19925;-87
2021/07/29 06:28:20;;;;;;;;;;;14.80;99.90;;;;;;5034413;28;20391;-87
2021/07/29 06:30:45;;;;;;;;;;;14.90;99.90;;;;;;5023914;28;20388;-86
2021/07/29 06:33:11;;;;;;;;;;;14.90;99.90;;;;;;4998378;28;19921;-87
2021/07/29 06:35:37;;;;;;;;;;;15.10;99.90;;;;;;4998036;28;20459;-87
2021/07/29 06:38:03;;;;;;;;;;;15.00;99.90;;;;;;5014356;28;19957;-85
2021/07/29 06:40:28;;;;;;;;;;;15.10;99.90;;;;;;4994760;28;20020;-86
2021/07/29 06:42:54;;;;;;;;;;;15.10;99.90;;;;;;4991503;28;19926;-86
2021/07/29 06:45:20;;;;;;;;;;;15.10;99.90;;;;;;5008543;28;19936;-86
2021/07/29 06:47:45;;;;;;;;;;;15.30;99.90;;;;;;5014404;28;19921;-86
2021/07/29 06:50:11;;;;;;;;;;;15.30;99.90;;;;;;5014260;28;19921;-86
2021/07/29 06:52:37;;;;;;;;;;;15.50;99.90;;;;;;4997366;28;20438;-86
2021/07/29 06:55:05;;;;;;;;;;;15.60;99.90;;;;;;4983566;28;19946;-86
2021/07/29 06:57:31;;;;;;;;;;;15.70;99.90;;;;;;4991535;28;19930;-85
2021/07/29 06:59:56;;;;;;;;;;;15.70;99.90;;;;;;5018830;28;19929;-85
2021/07/29 07:02:23;;;;;;;;;;;15.70;99.90;;;;;;5014325;28;19929;-86
2021/07/29 07:04:48;;;;;;;;;;;15.80;99.90;;;;;;5013872;28;19962;-85
2021/07/29 07:07:15;;;;;;;;;;;15.80;99.90;;;;;;5012075;28;19967;-86
2021/07/29 07:09:41;;;;;;;;;;;15.80;99.90;;;;;;4974828;28;19948;-86
2021/07/29 07:12:07;;;;;;;;;;;15.80;99.90;;;;;;4991658;28;19925;-86
2021/07/29 07:14:32;;;;;;;;;;;15.90;99.90;;;;;;5010532;28;19972;-87
2021/07/29 07:16:58;;;;;;;;;;;15.90;99.90;;;;;;5010386;28;19925;-86
2021/07/29 07:19:24;;;;;;;;;;;15.80;99.90;;;;;;4974877;28;20358;-87
2021/07/29 07:21:49;;;;;;;;;;;15.90;99.90;;;;;;5015901;28;20288;-86
2021/07/29 07:24:15;;;;;;;;;;;15.90;99.90;;;;;;5013674;28;19929;-86
2021/07/29 07:26:41;;;;;;;;;;;15.90;99.90;;;;;;5002685;28;19928;-86
2021/07/29 07:29:06;;;;;;;;;;;15.90;99.90;;;;;;4973711;28;19925;-86
2021/07/29 07:31:32;;;;;;;;;;;16.00;99.90;;;;;;4980234;28;19945;-85
2021/07/29 07:34:00;;;;;;;;;;;16.00;99.90;;;;;;4994988;28;19925;-86
2021/07/29 07:36:26;;;;;;;;;;;16.10;99.90;;;;;;4994065;28;20588;-86
2021/07/29 07:38:52;;;;;;;;;;;16.20;99.90;;;;;;4993974;28;19975;-85
2021/07/29 07:41:18;;;;;;;;;;;16.30;99.90;;;;;;4993499;28;20077;-86
2021/07/29 07:43:44;;;;;;;;;;;16.40;99.90;;;;;;5022999;28;19925;-85
2021/07/29 07:46:11;;;;;;;;;;;16.40;99.90;;;;;;5013124;28;20525;-86
2021/07/29 07:48:37;;;;;;;;;;;16.40;99.90;;;;;;5014002;28;19921;-86
2021/07/29 07:51:02;;;;;;;;;;;16.40;99.90;;;;;;5003801;28;19925;-86
2021/07/29 07:53:29;;;;;;;;;;;16.50;99.90;;;;;;5012925;28;19925;-85
2021/07/29 07:55:55;;;;;;;;;;;16.50;99.90;;;;;;5007332;28;19929;-85
2021/07/29 07:58:21;;;;;;;;;;;16.50;99.90;;;;;;5032875;28;20399;-86
2021/07/29 08:00:46;;;;;;;;;;;16.40;99.90;;;;;;5026297;28;19928;-86
2021/07/29 08:03:13;;;;;;;;;;;16.40;99.90;;;;;;5012904;28;19936;-86
2021/07/29 08:05:41;;;;;;;;;;;16.30;99.90;;;;;;4996320;28;19920;-85
2021/07/29 08:08:08;;;;;;;;;;;16.40;99.90;;;;;;5012571;28;19921;-86
2021/07/29 08:10:37;;;;;;;;;;;16.40;99.90;;;;;;4997497;28;19928;-85
2021/07/29 08:13:04;;;;;;;;;;;16.50;99.90;;;;;;5012747;28;19925;-85
2021/07/29 08:15:30;;;;;;;;;;;16.60;99.90;;;;;;5013599;28;19995;-86
2021/07/29 08:17:56;;;;;;;;;;;16.60;99.90;;;;;;5012321;28;19925;-86
2021/07/29 08:20:24;;;;;;;;;;;16.70;99.90;;;;;;5013022;28;19953;-86
2021/07/29 08:22:53;;;;;;;;;;;16.80;99.90;;;;;;5019673;28;20384;-86
2021/07/29 08:25:20;;;;;;;;;;;16.90;99.90;;;;;;4993934;28;19971;-85
2021/07/29 08:27:50;;;;;;;;;;;17.00;99.90;;;;;;4992855;28;20355;-87
2021/07/29 08:30:16;;;;;;;;;;;17.00;99.90;;;;;;5019312;28;19920;-86
2021/07/29 08:32:42;;;;;;;;;;;17.00;99.90;;;;;;5048693;28;20062;-86
2021/07/29 08:35:08;;;;;;;;;;;17.10;99.90;;;;;;5031762;28;19970;-85
2021/07/29 08:37:34;;;;;;;;;;;17.10;99.90;;;;;;5030021;28;19924;-86
2021/07/29 08:40:00;;;;;;;;;;;17.10;99.90;;;;;;5015274;28;20402;-86
2021/07/29 08:42:26;;;;;;;;;;;17.00;99.90;;;;;;5029704;28;19931;-85
2021/07/29 08:44:52;;;;;;;;;;;16.90;99.90;;;;;;5032039;28;20336;-86
2021/07/29 08:47:24;;;;;;;;;;;16.70;99.90;;;;;;5031406;28;19947;-86
2021/07/29 08:49:54;;;;;;;;;;;16.70;99.90;;;;;;5015742;28;19924;-85
2021/07/29 08:52:19;;;;;;;;;;;16.80;99.90;;;;;;5017720;28;19931;-86
2021/07/29 08:54:47;;;;;;;;;;;17.00;99.90;;;;;;5011399;28;19921;-85
2021/07/29 08:57:13;;;;;;;;;;;17.10;99.90;;;;;;4973634;28;19937;-86
2021/07/29 08:59:39;;;;;;;;;;;17.20;99.90;;;;;;5010781;28;19935;-87
2021/07/29 09:02:20;;;;;;;;;;;17.20;99.90;;;;;;5005288;28;20415;-86
2021/07/29 09:05:05;;;;;;;;;;;17.00;99.90;;;;;;4994436;28;20300;-86
2021/07/29 09:07:32;;;;;;;;;;;17.00;99.90;;;;;;5008518;28;19932;-85
2021/07/29 09:09:58;;;;;;;;;;;16.90;99.90;;;;;;5006522;28;19928;-86
2021/07/29 09:12:24;;;;;;;;;;;16.80;99.90;;;;;;4968459;28;19921;-85
2021/07/29 09:14:51;;;;;;;;;;;16.70;99.90;;;;;;4977364;28;19925;-86
2021/07/29 09:17:17;;;;;;;;;;;16.80;99.90;;;;;;5029654;28;20690;-86
2021/07/29 09:19:45;;;;;;;;;;;16.90;99.90;;;;;;4997167;28;19924;-85
2021/07/29 09:22:33;;;;;;;;;;;16.90;99.90;;;;;;5024743;28;19956;-85
2021/07/29 09:25:02;;;;;;;;;;;16.90;99.90;;;;;;5009704;28;19920;-86
2021/07/29 09:27:37;;;;;;;;;;;17.00;99.90;;;;;;5009744;28;20552;-85
2021/07/29 09:30:18;;;;;;;;;;;17.10;99.90;;;;;;5010628;28;20457;-85
2021/07/29 09:33:02;;;;;;;;;;;17.10;99.90;;;;;;5010323;28;19929;-85
2021/07/29 09:35:31;;;;;;;;;;;17.10;99.90;;;;;;5009363;28;19929;-85
2021/07/29 09:37:58;;;;;;;;;;;17.10;99.90;;;;;;5010889;28;19983;-86
2021/07/29 09:40:24;;;;;;;;;;;17.20;99.90;;;;;;5011480;28;19921;-86
2021/07/29 09:43:19;;;;;;;;;;;17.30;99.90;;;;;;5012424;28;20311;-87
2021/07/29 09:45:45;;;;;;;;;;;17.40;99.90;;;;;;4998547;28;19925;-86
2021/07/29 09:48:11;;;;;;;;;;;17.50;99.90;;;;;;5010581;28;19971;-86
2021/07/29 09:50:38;;;;;;;;;;;17.50;99.90;;;;;;5018644;28;19925;-87
2021/07/29 09:53:04;;;;;;;;;;;17.40;99.90;;;;;;5014558;28;19929;-86
2021/07/29 09:55:30;;;;;;;;;;;17.30;99.90;;;;;;5014628;28;19932;-86
2021/07/29 09:57:59;;;;;;;;;;;17.10;99.90;;;;;;4998805;28;20336;-88
2021/07/29 10:00:25;;;;;;;;;;;17.00;99.90;;;;;;5024738;28;20353;-85
2021/07/29 10:02:53;;;;;;;;;;;16.90;99.90;;;;;;5015351;28;20019;-85
2021/07/29 10:05:39;;;;;;;;;;;16.90;99.90;;;;;;5037837;28;20465;-85
2021/07/29 10:08:06;;;;;;;;;;;17.00;99.90;;;;;;5017726;28;20436;-85
2021/07/29 10:10:32;;;;;;;;;;;17.30;99.90;;;;;;5040416;28;19925;-86
2021/07/29 10:12:58;;;;;;;;;;;17.50;99.90;;;;;;5013759;28;20436;-85
2021/07/29 10:15:37;;;;;;;;;;;17.70;99.90;;;;;;5014980;28;19925;-85
2021/07/29 10:18:03;;;;;;;;;;;17.80;99.90;;;;;;5014622;28;20396;-85
2021/07/29 10:20:33;;;;;;;;;;;17.90;99.90;;;;;;5017096;28;19923;-86
2021/07/29 10:23:14;;;;;;;;;;;17.90;99.90;;;;;;5014714;28;19925;-85
2021/07/29 10:26:08;;;;;;;;;;;17.80;99.90;;;;;;4994927;28;20007;-86
2021/07/29 10:28:40;;;;;;;;;;;17.60;99.90;;;;;;5011294;28;19921;-85
2021/07/29 10:31:07;;;;;;;;;;;17.50;99.90;;;;;;5018492;28;19960;-85
2021/07/29 10:33:36;;;;;;;;;;;17.30;99.90;;;;;;5051735;28;20008;-85
2021/07/29 10:36:02;;;;;;;;;;;17.40;99.90;;;;;;5034227;28;20027;-86
2021/07/29 10:38:44;;;;;;;;;;;17.50;99.90;;;;;;5034064;28;19928;-86
2021/07/29 10:41:10;;;;;;;;;;;17.60;99.90;;;;;;5034093;28;19928;-87
2021/07/29 10:43:37;;;;;;;;;;;17.70;99.90;;;;;;5032293;28;19925;-86
2021/07/29 10:46:02;;;;;;;;;;;17.80;99.90;;;;;;5034160;28;20350;-85
2021/07/29 10:48:40;;;;;;;;;;;17.80;99.90;;;;;;5017574;28;19951;-85
2021/07/29 10:51:10;;;;;;;;;;;18.00;99.90;;;;;;5030820;28;19932;-86
2021/07/29 10:53:37;;;;;;;;;;;18.00;99.90;;;;;;4999198;28;19964;-85
2021/07/29 10:56:03;;;;;;;;;;;18.10;99.90;;;;;;5013842;28;19925;-85
2021/07/29 10:58:37;;;;;;;;;;;18.10;99.90;;;;;;5023915;28;20040;-85
2021/07/29 11:01:03;;;;;;;;;;;18.00;99.90;;;;;;5033564;28;19979;-85
2021/07/29 11:03:29;;;;;;;;;;;18.10;99.90;;;;;;5013628;28;20651;-88
2021/07/29 11:06:05;;;;;;;;;;;18.20;99.90;;;;;;5014467;28;19929;-86
2021/07/29 11:08:31;;;;;;;;;;;18.10;99.90;;;;;;5019539;28;19943;-86
2021/07/29 11:10:58;;;;;;;;;;;18.10;99.90;;;;;;5033603;28;20376;-86
2021/07/29 11:13:24;;;;;;;;;;;18.10;99.90;;;;;;5003887;28;19924;-85
2021/07/29 11:15:50;;;;;;;;;;;18.30;99.90;;;;;;5013341;28;20036;-85
2021/07/29 11:18:17;;;;;;;;;;;18.40;99.90;;;;;;4997554;28;20015;-85
2021/07/29 11:20:43;;;;;;;;;;;18.50;99.90;;;;;;4997863;28;19920;-86
2021/07/29 11:23:13;;;;;;;;;;;18.50;99.90;;;;;;4994711;28;19968;-85
2021/07/29 11:25:55;;;;;;;;;;;18.40;99.90;;;;;;5023172;28;20339;-86
2021/07/29 11:28:21;;;;;;;;;;;18.30;99.90;;;;;;4991710;28;19927;-85
2021/07/29 11:30:47;;;;;;;;;;;18.30;99.90;;;;;;4997017;28;19925;-85
2021/07/29 11:33:22;;;;;;;;;;;18.20;99.90;;;;;;4992899;28;20044;-88
2021/07/29 11:35:48;;;;;;;;;;;18.30;99.90;;;;;;5050715;28;20150;-86
2021/07/29 11:38:24;;;;;;;;;;;18.60;99.90;;;;;;5014834;28;19920;-85
2021/07/29 11:41:00;;;;;;;;;;;18.70;99.90;;;;;;5007847;28;19931;-86
2021/07/29 11:43:29;;;;;;;;;;;18.80;99.90;;;;;;5009830;28;20020;-86
2021/07/29 11:46:05;;;;;;;;;;;19.00;99.90;;;;;;5046036;28;19928;-87
2021/07/29 11:48:31;;;;;;;;;;;19.00;99.90;;;;;;5016983;28;19947;-86
2021/07/29 11:50:57;;;;;;;;;;;19.00;99.90;;;;;;5013157;28;20400;-85
2021/07/29 11:53:35;;;;;;;;;;;19.10;99.90;;;;;;5014297;28;19929;-87
2021/07/29 11:56:01;;;;;;;;;;;19.10;99.90;;;;;;5012926;28;20023;-86
2021/07/29 11:58:27;;;;;;;;;;;19.10;99.90;;;;;;5029966;28;20071;-87
2021/07/29 12:00:54;;;;;;;;;;;19.10;99.90;;;;;;5010574;28;19924;-86
2021/07/29 12:03:27;;;;;;;;;;;19.10;99.90;;;;;;4996068;28;20411;-85
2021/07/29 12:05:54;;;;;;;;;;;19.10;99.90;;;;;;5010798;28;19948;-87
2021/07/29 12:08:20;;;;;;;;;;;19.10;99.90;;;;;;4994925;28;19929;-86
2021/07/29 12:10:46;;;;;;;;;;;19.20;99.90;;;;;;5013259;28;19940;-87
2021/07/29 12:13:14;;;;;;;;;;;19.30;99.90;;;;;;5012328;28;20696;-86
2021/07/29 12:15:40;;;;;;;;;;;19.10;99.90;;;;;;4994961;28;20015;-87
2021/07/29 12:18:14;;;;;;;;;;;19.00;99.90;;;;;;4986584;28;19937;-86
2021/07/29 12:20:40;;;;;;;;;;;18.90;99.90;;;;;;5003707;28;19925;-87
2021/07/29 12:23:12;;;;;;;;;;;18.70;99.90;;;;;;5004811;28;19929;-87
2021/07/29 12:25:38;;;;;;;;;;;18.80;99.90;;;;;;5004732;28;20015;-85
2021/07/29 12:28:04;;;;;;;;;;;18.70;99.90;;;;;;4979161;28;19925;-86
2021/07/29 12:30:38;;;;;;;;;;;18.70;99.90;;;;;;4977992;28;19931;-86
2021/07/29 12:33:08;;;;;;;;;;;18.60;99.90;;;;;;4969198;28;20024;-86
2021/07/29 12:35:34;;;;;;;;;;;18.80;99.90;;;;;;5011649;28;19931;-86
2021/07/29 12:37:59;;;;;;;;;;;18.80;99.90;;;;;;4999778;28;19951;-84
2021/07/29 12:40:26;;;;;;;;;;;18.80;99.90;;;;;;5004065;28;20392;-85
2021/07/29 12:42:52;;;;;;;;;;;18.80;99.90;;;;;;5001039;28;19936;-86
2021/07/29 12:45:18;;;;;;;;;;;18.90;99.90;;;;;;4984737;28;19929;-86
2021/07/29 12:48:02;;;;;;;;;;;19.00;99.90;;;;;;5018369;28;20011;-85
2021/07/29 12:50:40;;;;;;;;;;;19.10;99.90;;;;;;5027921;28;20434;-86
2021/07/29 12:53:13;;;;;;;;;;;19.10;99.90;;;;;;5005510;28;19973;-86
2021/07/29 12:55:39;;;;;;;;;;;19.00;99.90;;;;;;4970983;28;19925;-86
2021/07/29 12:58:08;;;;;;;;;;;18.90;99.90;;;;;;5008477;28;19929;-85
2021/07/29 13:00:41;;;;;;;;;;;19.00;99.90;;;;;;4992969;28;19949;-85
2021/07/29 13:03:16;;;;;;;;;;;19.10;99.90;;;;;;5022978;28;19917;-86
2021/07/29 13:05:42;;;;;;;;;;;19.00;99.90;;;;;;4985852;28;19921;-85
2021/07/29 13:08:08;;;;;;;;;;;19.00;99.90;;;;;;5018642;28;20336;-85
2021/07/29 13:10:34;;;;;;;;;;;19.10;99.90;;;;;;4994175;28;20384;-85
2021/07/29 13:13:00;;;;;;;;;;;19.20;99.90;;;;;;5012295;28;19924;-85
2021/07/29 13:15:27;;;;;;;;;;;19.40;99.90;;;;;;4994757;28;19936;-87
2021/07/29 13:17:53;;;;;;;;;;;19.50;99.90;;;;;;5011396;28;20413;-85
2021/07/29 13:20:18;;;;;;;;;;;19.50;99.90;;;;;;5029343;28;19929;-86
2021/07/29 13:22:46;;;;;;;;;;;19.60;99.90;;;;;;5030536;28;19925;-86
2021/07/29 13:25:12;;;;;;;;;;;19.60;99.90;;;;;;5002920;28;19928;-88
2021/07/29 13:27:37;;;;;;;;;;;19.70;99.90;;;;;;5031428;28;19924;-89
2021/07/29 13:30:03;;;;;;;;;;;19.70;99.90;;;;;;5028254;28;19932;-87
2021/07/29 13:32:29;;;;;;;;;;;19.80;99.90;;;;;;5003476;28;20330;-87
2021/07/29 13:34:55;;;;;;;;;;;19.80;99.90;;;;;;5003997;28;20399;-87
2021/07/29 13:37:20;;;;;;;;;;;19.70;99.90;;;;;;4989908;28;20379;-85
2021/07/29 13:39:46;;;;;;;;;;;19.80;99.90;;;;;;5004028;28;20296;-87
2021/07/29 13:42:12;;;;;;;;;;;19.80;99.90;;;;;;4990379;28;19978;-88
2021/07/29 13:44:43;;;;;;;;;;;19.80;99.90;;;;;;4987565;28;19926;-85
2021/07/29 13:47:09;;;;;;;;;;;19.70;99.90;;;;;;5003780;28;19932;-86
2021/07/29 13:49:35;;;;;;;;;;;19.70;99.90;;;;;;4997360;28;20380;-84
2021/07/29 13:52:01;;;;;;;;;;;19.80;99.90;;;;;;4995653;28;19928;-85
2021/07/29 13:54:27;;;;;;;;;;;20.00;99.90;;;;;;4994164;28;20347;-86
2021/07/29 13:56:52;;;;;;;;;;;20.00;99.90;;;;;;5020560;28;19929;-85
2021/07/29 13:59:18;;;;;;;;;;;19.90;99.90;;;;;;4988108;28;19932;-85
2021/07/29 14:01:44;;;;;;;;;;;19.80;99.90;;;;;;5001913;28;19947;-87
2021/07/29 14:04:11;;;;;;;;;;;19.70;99.90;;;;;;5006440;28;19921;-85
2021/07/29 14:06:36;;;;;;;;;;;19.60;99.90;;;;;;5000122;28;19928;-85
2021/07/29 14:09:02;;;;;;;;;;;19.50;99.90;;;;;;4986130;28;19924;-86
2021/07/29 14:11:28;;;;;;;;;;;19.40;99.90;;;;;;4986764;28;19936;-85
2021/07/29 14:13:54;;;;;;;;;;;19.40;99.90;;;;;;5004521;28;19925;-85
2021/07/29 14:16:20;;;;;;;;;;;19.40;99.90;;;;;;4994209;28;19990;-86
2021/07/29 14:18:49;;;;;;;;;;;19.40;99.90;;;;;;5010087;28;20021;-87